sensor_id;sensor_type;location;lat;lon;timestamp;temperature;humidity
72576;DHT22;60613;48.658;2.328;2022-09-09T00:05:31;26.00;47.20
72576;DHT22;60613;48.658;2.328;2022-09-09T00:07:45;26.00;47.20
72576;DHT22;60613;48.658;2.328;2022-09-09T00:10:28;25.90;47.20
72576;DHT22;60613;48.658;2.328;2022-09-09T00:13:17;25.90;47.20
72576;DHT22;60613;48.658;2.328;2022-09-09T00:16:24;25.90;47.10
72576;DHT22;60613;48.658;2.328;2022-09-09T00:21:37;25.90;46.90
72576;DHT22;60613;48.658;2.328;2022-09-09T00:25:14;25.90;47.20
72576;DHT22;60613;48.658;2.328;2022-09-09T00:27:41;25.90;47.00
72576;DHT22;60613;48.658;2.328;2022-09-09T00:30:24;25.90;47.00
72576;DHT22;60613;48.658;2.328;2022-09-09T00:32:55;25.90;46.90
72576;DHT22;60613;48.658;2.328;2022-09-09T00:35:32;25.90;46.90
72576;DHT22;60613;48.658;2.328;2022-09-09T00:38:32;25.80;47.00
72576;DHT22;60613;48.658;2.328;2022-09-09T00:41:11;25.80;46.90
72576;DHT22;60613;48.658;2.328;2022-09-09T00:43:40;25.90;46.90
72576;DHT22;60613;48.658;2.328;2022-09-09T00:57:35;25.80;47.00
72576;DHT22;60613;48.658;2.328;2022-09-09T01:00:23;25.80;46.90
72576;DHT22;60613;48.658;2.328;2022-09-09T01:08:03;25.70;46.90
72576;DHT22;60613;48.658;2.328;2022-09-09T01:10:52;25.70;46.80
72576;DHT22;60613;48.658;2.328;2022-09-09T01:13:30;25.80;46.90
72576;DHT22;60613;48.658;2.328;2022-09-09T01:16:01;25.70;46.80
72576;DHT22;60613;48.658;2.328;2022-09-09T01:19:00;25.70;46.90
72576;DHT22;60613;48.658;2.328;2022-09-09T01:21:44;25.70;46.90
72576;DHT22;60613;48.658;2.328;2022-09-09T01:24:38;25.70;46.90
72576;DHT22;60613;48.658;2.328;2022-09-09T01:27:06;25.70;46.80
72576;DHT22;60613;48.658;2.328;2022-09-09T01:29:33;25.70;46.80
72576;DHT22;60613;48.658;2.328;2022-09-09T01:32:37;25.70;46.70
72576;DHT22;60613;48.658;2.328;2022-09-09T01:34:45;25.70;46.80
72576;DHT22;60613;48.658;2.328;2022-09-09T01:37:12;25.60;46.80
72576;DHT22;60613;48.658;2.328;2022-09-09T01:39:40;25.70;46.80
72576;DHT22;60613;48.658;2.328;2022-09-09T01:42:09;25.60;46.80
72576;DHT22;60613;48.658;2.328;2022-09-09T01:44:36;25.60;46.70
72576;DHT22;60613;48.658;2.328;2022-09-09T01:47:02;25.60;46.80
72576;DHT22;60613;48.658;2.328;2022-09-09T01:49:28;25.60;46.80
72576;DHT22;60613;48.658;2.328;2022-09-09T01:51:55;25.70;46.70
72576;DHT22;60613;48.658;2.328;2022-09-09T01:54:24;25.70;46.70
72576;DHT22;60613;48.658;2.328;2022-09-09T01:59:51;25.60;46.70
72576;DHT22;60613;48.658;2.328;2022-09-09T02:05:34;25.60;46.80
72576;DHT22;60613;48.658;2.328;2022-09-09T02:08:15;25.70;46.70
72576;DHT22;60613;48.658;2.328;2022-09-09T02:10:50;25.60;46.80
72576;DHT22;60613;48.658;2.328;2022-09-09T02:13:20;25.60;46.80
72576;DHT22;60613;48.658;2.328;2022-09-09T02:15:56;25.60;46.60
72576;DHT22;60613;48.658;2.328;2022-09-09T02:18:39;25.60;46.60
72576;DHT22;60613;48.658;2.328;2022-09-09T02:21:06;25.60;46.60
72576;DHT22;60613;48.658;2.328;2022-09-09T02:23:34;25.60;46.60
72576;DHT22;60613;48.658;2.328;2022-09-09T02:26:00;25.60;46.70
72576;DHT22;60613;48.658;2.328;2022-09-09T02:28:30;25.50;46.70
72576;DHT22;60613;48.658;2.328;2022-09-09T02:30:57;25.50;46.70
72576;DHT22;60613;48.658;2.328;2022-09-09T02:33:30;25.50;46.60
72576;DHT22;60613;48.658;2.328;2022-09-09T02:36:01;25.60;46.60
72576;DHT22;60613;48.658;2.328;2022-09-09T02:38:33;25.50;46.60
72576;DHT22;60613;48.658;2.328;2022-09-09T02:41:00;25.50;46.60
72576;DHT22;60613;48.658;2.328;2022-09-09T02:43:31;25.50;46.60
72576;DHT22;60613;48.658;2.328;2022-09-09T02:54:17;25.40;46.30
72576;DHT22;60613;48.658;2.328;2022-09-09T02:56:51;25.40;46.50
72576;DHT22;60613;48.658;2.328;2022-09-09T02:59:20;25.40;46.30
72576;DHT22;60613;48.658;2.328;2022-09-09T03:01:46;25.50;46.40
72576;DHT22;60613;48.658;2.328;2022-09-09T03:04:12;25.40;46.30
72576;DHT22;60613;48.658;2.328;2022-09-09T03:06:38;25.40;46.20
72576;DHT22;60613;48.658;2.328;2022-09-09T03:09:04;25.40;46.10
72576;DHT22;60613;48.658;2.328;2022-09-09T03:11:29;25.50;46.10
72576;DHT22;60613;48.658;2.328;2022-09-09T03:13:55;25.40;46.00
72576;DHT22;60613;48.658;2.328;2022-09-09T03:16:23;25.40;46.10
72576;DHT22;60613;48.658;2.328;2022-09-09T03:18:49;25.40;46.10
72576;DHT22;60613;48.658;2.328;2022-09-09T03:21:15;25.40;46.10
72576;DHT22;60613;48.658;2.328;2022-09-09T03:23:41;25.40;46.00
72576;DHT22;60613;48.658;2.328;2022-09-09T03:26:07;25.40;46.00
72576;DHT22;60613;48.658;2.328;2022-09-09T03:28:33;25.40;46.00
72576;DHT22;60613;48.658;2.328;2022-09-09T03:31:00;25.40;46.00
72576;DHT22;60613;48.658;2.328;2022-09-09T03:33:26;25.40;45.90
72576;DHT22;60613;48.658;2.328;2022-09-09T03:35:51;25.40;45.80
72576;DHT22;60613;48.658;2.328;2022-09-09T03:38:17;25.40;45.90
72576;DHT22;60613;48.658;2.328;2022-09-09T03:40:53;25.40;45.80
72576;DHT22;60613;48.658;2.328;2022-09-09T03:43:24;25.40;45.80
72576;DHT22;60613;48.658;2.328;2022-09-09T03:45:50;25.40;45.80
72576;DHT22;60613;48.658;2.328;2022-09-09T03:48:17;25.40;45.90
72576;DHT22;60613;48.658;2.328;2022-09-09T03:50:47;25.40;45.80
72576;DHT22;60613;48.658;2.328;2022-09-09T03:53:14;25.40;45.80
72576;DHT22;60613;48.658;2.328;2022-09-09T03:55:44;25.40;45.80
72576;DHT22;60613;48.658;2.328;2022-09-09T03:58:11;25.40;45.70
72576;DHT22;60613;48.658;2.328;2022-09-09T04:00:37;25.40;45.70
72576;DHT22;60613;48.658;2.328;2022-09-09T04:03:05;25.40;45.80
72576;DHT22;60613;48.658;2.328;2022-09-09T04:05:31;25.30;45.70
72576;DHT22;60613;48.658;2.328;2022-09-09T04:07:59;25.30;45.70
72576;DHT22;60613;48.658;2.328;2022-09-09T04:10:25;25.30;45.80
72576;DHT22;60613;48.658;2.328;2022-09-09T04:12:50;25.30;47.00
72576;DHT22;60613;48.658;2.328;2022-09-09T04:15:16;25.30;45.70
72576;DHT22;60613;48.658;2.328;2022-09-09T04:17:44;25.30;45.70
72576;DHT22;60613;48.658;2.328;2022-09-09T04:20:09;25.30;45.60
72576;DHT22;60613;48.658;2.328;2022-09-09T04:22:37;25.30;45.70
72576;DHT22;60613;48.658;2.328;2022-09-09T04:25:05;25.30;45.70
72576;DHT22;60613;48.658;2.328;2022-09-09T04:27:31;25.30;45.60
72576;DHT22;60613;48.658;2.328;2022-09-09T04:29:57;25.30;45.60
72576;DHT22;60613;48.658;2.328;2022-09-09T04:32:23;25.30;45.60
72576;DHT22;60613;48.658;2.328;2022-09-09T04:34:48;25.30;45.60
72576;DHT22;60613;48.658;2.328;2022-09-09T04:37:17;25.20;45.70
72576;DHT22;60613;48.658;2.328;2022-09-09T04:39:42;25.20;45.70
72576;DHT22;60613;48.658;2.328;2022-09-09T04:42:08;25.30;45.70
72576;DHT22;60613;48.658;2.328;2022-09-09T04:44:34;25.30;45.70
72576;DHT22;60613;48.658;2.328;2022-09-09T04:46:59;25.30;45.60
72576;DHT22;60613;48.658;2.328;2022-09-09T04:49:25;25.20;45.70
72576;DHT22;60613;48.658;2.328;2022-09-09T04:51:51;25.20;45.70
72576;DHT22;60613;48.658;2.328;2022-09-09T04:54:17;25.20;45.80
72576;DHT22;60613;48.658;2.328;2022-09-09T04:56:42;25.20;45.70
72576;DHT22;60613;48.658;2.328;2022-09-09T04:59:08;25.20;45.70
72576;DHT22;60613;48.658;2.328;2022-09-09T05:01:35;25.20;45.60
72576;DHT22;60613;48.658;2.328;2022-09-09T05:04:02;25.20;45.60
72576;DHT22;60613;48.658;2.328;2022-09-09T05:06:28;25.20;45.60
72576;DHT22;60613;48.658;2.328;2022-09-09T05:08:56;25.30;45.60
72576;DHT22;60613;48.658;2.328;2022-09-09T05:11:25;25.20;45.70
72576;DHT22;60613;48.658;2.328;2022-09-09T05:13:52;25.20;44.70
72576;DHT22;60613;48.658;2.328;2022-09-09T05:16:18;25.20;46.00
72576;DHT22;60613;48.658;2.328;2022-09-09T05:18:44;25.30;46.00
72576;DHT22;60613;48.658;2.328;2022-09-09T05:21:12;25.20;45.90
72576;DHT22;60613;48.658;2.328;2022-09-09T05:23:39;25.20;45.90
72576;DHT22;60613;48.658;2.328;2022-09-09T05:26:05;25.20;45.80
72576;DHT22;60613;48.658;2.328;2022-09-09T05:28:34;25.20;45.80
72576;DHT22;60613;48.658;2.328;2022-09-09T05:31:03;25.20;45.90
72576;DHT22;60613;48.658;2.328;2022-09-09T05:33:30;25.20;45.80
72576;DHT22;60613;48.658;2.328;2022-09-09T05:36:04;25.20;46.00
72576;DHT22;60613;48.658;2.328;2022-09-09T05:38:31;25.20;45.80
72576;DHT22;60613;48.658;2.328;2022-09-09T05:40:58;25.20;45.90
72576;DHT22;60613;48.658;2.328;2022-09-09T05:43:25;25.20;46.00
72576;DHT22;60613;48.658;2.328;2022-09-09T05:46:00;25.30;45.90
72576;DHT22;60613;48.658;2.328;2022-09-09T05:48:34;25.40;45.80
72576;DHT22;60613;48.658;2.328;2022-09-09T05:51:01;25.40;45.80
72576;DHT22;60613;48.658;2.328;2022-09-09T05:53:28;25.50;45.70
72576;DHT22;60613;48.658;2.328;2022-09-09T05:56:08;25.50;45.70
72576;DHT22;60613;48.658;2.328;2022-09-09T05:58:36;25.60;45.70
72576;DHT22;60613;48.658;2.328;2022-09-09T06:01:12;25.60;45.50
72576;DHT22;60613;48.658;2.328;2022-09-09T06:03:40;25.60;45.50
72576;DHT22;60613;48.658;2.328;2022-09-09T06:06:08;25.60;45.60
72576;DHT22;60613;48.658;2.328;2022-09-09T06:08:36;25.70;45.60
72576;DHT22;60613;48.658;2.328;2022-09-09T06:11:10;25.70;45.50
72576;DHT22;60613;48.658;2.328;2022-09-09T06:13:36;25.60;45.40
72576;DHT22;60613;48.658;2.328;2022-09-09T06:16:05;25.60;45.40
72576;DHT22;60613;48.658;2.328;2022-09-09T06:18:32;25.50;45.40
72576;DHT22;60613;48.658;2.328;2022-09-09T06:21:03;25.50;45.60
72576;DHT22;60613;48.658;2.328;2022-09-09T06:23:33;25.50;45.70
72576;DHT22;60613;48.658;2.328;2022-09-09T06:28:32;25.40;46.00
72576;DHT22;60613;48.658;2.328;2022-09-09T06:31:06;25.50;45.70
72576;DHT22;60613;48.658;2.328;2022-09-09T06:33:34;25.50;45.80
72576;DHT22;60613;48.658;2.328;2022-09-09T06:36:02;25.60;45.60
72576;DHT22;60613;48.658;2.328;2022-09-09T06:38:29;25.60;45.50
72576;DHT22;60613;48.658;2.328;2022-09-09T06:40:56;25.70;45.50
72576;DHT22;60613;48.658;2.328;2022-09-09T06:43:23;25.70;45.50
72576;DHT22;60613;48.658;2.328;2022-09-09T06:45:57;25.70;45.30
72576;DHT22;60613;48.658;2.328;2022-09-09T06:48:24;25.70;45.40
72576;DHT22;60613;48.658;2.328;2022-09-09T06:50:59;25.60;45.60
72576;DHT22;60613;48.658;2.328;2022-09-09T06:53:25;25.60;45.60
72576;DHT22;60613;48.658;2.328;2022-09-09T06:55:52;25.60;45.60
72576;DHT22;60613;48.658;2.328;2022-09-09T06:58:18;25.50;45.50
72576;DHT22;60613;48.658;2.328;2022-09-09T07:00:44;25.60;45.50
72576;DHT22;60613;48.658;2.328;2022-09-09T07:03:10;25.60;45.30
72576;DHT22;60613;48.658;2.328;2022-09-09T07:05:36;25.60;45.30
72576;DHT22;60613;48.658;2.328;2022-09-09T07:08:02;25.60;45.20
72576;DHT22;60613;48.658;2.328;2022-09-09T07:10:27;25.60;45.10
72576;DHT22;60613;48.658;2.328;2022-09-09T07:12:53;25.60;45.10
72576;DHT22;60613;48.658;2.328;2022-09-09T07:15:20;25.60;45.00
72576;DHT22;60613;48.658;2.328;2022-09-09T07:17:47;25.70;45.00
72576;DHT22;60613;48.658;2.328;2022-09-09T07:20:13;25.70;44.90
72576;DHT22;60613;48.658;2.328;2022-09-09T07:22:40;25.70;44.90
72576;DHT22;60613;48.658;2.328;2022-09-09T07:25:06;25.70;45.00
72576;DHT22;60613;48.658;2.328;2022-09-09T07:27:32;25.70;44.90
72576;DHT22;60613;48.658;2.328;2022-09-09T07:29:57;25.70;45.00
72576;DHT22;60613;48.658;2.328;2022-09-09T07:32:23;25.70;45.00
72576;DHT22;60613;48.658;2.328;2022-09-09T07:34:51;25.70;45.00
72576;DHT22;60613;48.658;2.328;2022-09-09T07:37:17;25.70;44.70
72576;DHT22;60613;48.658;2.328;2022-09-09T07:39:43;25.70;44.70
72576;DHT22;60613;48.658;2.328;2022-09-09T07:42:09;25.70;44.70
72576;DHT22;60613;48.658;2.328;2022-09-09T07:44:37;25.70;44.70
72576;DHT22;60613;48.658;2.328;2022-09-09T07:47:05;25.70;44.70
72576;DHT22;60613;48.658;2.328;2022-09-09T07:49:31;25.70;45.10
72576;DHT22;60613;48.658;2.328;2022-09-09T07:51:58;25.70;44.60
72576;DHT22;60613;48.658;2.328;2022-09-09T07:54:23;25.70;44.90
72576;DHT22;60613;48.658;2.328;2022-09-09T07:56:50;25.70;45.10
72576;DHT22;60613;48.658;2.328;2022-09-09T07:59:16;25.70;44.80
72576;DHT22;60613;48.658;2.328;2022-09-09T08:01:50;25.70;46.70
72576;DHT22;60613;48.658;2.328;2022-09-09T08:04:20;25.80;45.40
72576;DHT22;60613;48.658;2.328;2022-09-09T08:06:52;25.80;44.90
72576;DHT22;60613;48.658;2.328;2022-09-09T08:09:22;25.90;45.00
72576;DHT22;60613;48.658;2.328;2022-09-09T08:11:50;25.90;44.90
72576;DHT22;60613;48.658;2.328;2022-09-09T08:14:16;25.90;45.00
72576;DHT22;60613;48.658;2.328;2022-09-09T08:16:47;25.90;45.10
72576;DHT22;60613;48.658;2.328;2022-09-09T08:19:13;25.80;45.50
72576;DHT22;60613;48.658;2.328;2022-09-09T08:21:40;25.80;45.60
72576;DHT22;60613;48.658;2.328;2022-09-09T08:24:08;25.80;45.50
72576;DHT22;60613;48.658;2.328;2022-09-09T08:26:36;25.80;45.70
72576;DHT22;60613;48.658;2.328;2022-09-09T08:29:04;25.80;45.60
72576;DHT22;60613;48.658;2.328;2022-09-09T08:31:35;25.80;46.30
72576;DHT22;60613;48.658;2.328;2022-09-09T08:34:03;25.80;46.00
72576;DHT22;60613;48.658;2.328;2022-09-09T08:36:32;25.80;46.30
72576;DHT22;60613;48.658;2.328;2022-09-09T08:39:02;25.80;45.80
72576;DHT22;60613;48.658;2.328;2022-09-09T08:45:19;26.00;45.50
72576;DHT22;60613;48.658;2.328;2022-09-09T08:50:25;26.10;44.70
72576;DHT22;60613;48.658;2.328;2022-09-09T08:55:50;26.20;44.30
72576;DHT22;60613;48.658;2.328;2022-09-09T08:58:23;26.20;44.80
72576;DHT22;60613;48.658;2.328;2022-09-09T09:12:35;25.90;45.40
72576;DHT22;60613;48.658;2.328;2022-09-09T09:15:05;25.90;46.20
72576;DHT22;60613;48.658;2.328;2022-09-09T09:17:37;25.90;45.60
72576;DHT22;60613;48.658;2.328;2022-09-09T09:20:10;25.90;45.20
72576;DHT22;60613;48.658;2.328;2022-09-09T09:22:45;26.00;45.60
72576;DHT22;60613;48.658;2.328;2022-09-09T09:25:21;26.00;45.50
72576;DHT22;60613;48.658;2.328;2022-09-09T09:35:57;26.00;46.70
72576;DHT22;60613;48.658;2.328;2022-09-09T09:38:26;26.00;46.90
72576;DHT22;60613;48.658;2.328;2022-09-09T09:40:54;26.00;47.10
72576;DHT22;60613;48.658;2.328;2022-09-09T09:43:36;26.00;47.30
72576;DHT22;60613;48.658;2.328;2022-09-09T09:46:05;26.00;47.60
72576;DHT22;60613;48.658;2.328;2022-09-09T09:48:31;26.10;47.70
72576;DHT22;60613;48.658;2.328;2022-09-09T09:51:09;26.10;48.40
72576;DHT22;60613;48.658;2.328;2022-09-09T09:53:38;26.00;48.70
72576;DHT22;60613;48.658;2.328;2022-09-09T09:56:07;26.00;48.80
72576;DHT22;60613;48.658;2.328;2022-09-09T09:58:48;26.00;48.80
72576;DHT22;60613;48.658;2.328;2022-09-09T10:01:30;26.10;49.00
72576;DHT22;60613;48.658;2.328;2022-09-09T10:04:01;26.10;48.40
72576;DHT22;60613;48.658;2.328;2022-09-09T10:06:35;26.10;48.50
72576;DHT22;60613;48.658;2.328;2022-09-09T10:09:03;26.20;47.90
72576;DHT22;60613;48.658;2.328;2022-09-09T10:14:21;26.30;46.80
72576;DHT22;60613;48.658;2.328;2022-09-09T10:22:28;26.20;46.90
72576;DHT22;60613;48.658;2.328;2022-09-09T10:30:21;26.10;46.80
72576;DHT22;60613;48.658;2.328;2022-09-09T10:33:10;26.00;46.80
72576;DHT22;60613;48.658;2.328;2022-09-09T10:35:57;26.00;46.80
72576;DHT22;60613;48.658;2.328;2022-09-09T10:38:42;26.00;46.90
72576;DHT22;60613;48.658;2.328;2022-09-09T10:41:18;26.00;46.70
72576;DHT22;60613;48.658;2.328;2022-09-09T10:46:50;25.90;46.70
72576;DHT22;60613;48.658;2.328;2022-09-09T10:52:38;25.80;46.50
72576;DHT22;60613;48.658;2.328;2022-09-09T10:55:10;25.80;46.60
72576;DHT22;60613;48.658;2.328;2022-09-09T10:57:51;25.80;46.70
72576;DHT22;60613;48.658;2.328;2022-09-09T11:00:22;25.80;46.70
72576;DHT22;60613;48.658;2.328;2022-09-09T11:03:01;25.80;47.10
72576;DHT22;60613;48.658;2.328;2022-09-09T11:05:45;25.90;47.40
72576;DHT22;60613;48.658;2.328;2022-09-09T11:08:19;26.00;46.90
72576;DHT22;60613;48.658;2.328;2022-09-09T11:11:16;26.10;46.60
72576;DHT22;60613;48.658;2.328;2022-09-09T11:19:04;26.20;46.00
72576;DHT22;60613;48.658;2.328;2022-09-09T11:21:38;26.20;45.90
72576;DHT22;60613;48.658;2.328;2022-09-09T11:24:40;26.10;46.10
72576;DHT22;60613;48.658;2.328;2022-09-09T11:27:22;26.20;46.20
72576;DHT22;60613;48.658;2.328;2022-09-09T11:30:20;26.20;46.10
72576;DHT22;60613;48.658;2.328;2022-09-09T11:35:58;26.20;45.60
72576;DHT22;60613;48.658;2.328;2022-09-09T11:38:28;26.30;45.80
72576;DHT22;60613;48.658;2.328;2022-09-09T11:41:02;26.30;45.80
72576;DHT22;60613;48.658;2.328;2022-09-09T11:43:49;26.20;45.70
72576;DHT22;60613;48.658;2.328;2022-09-09T11:46:34;26.30;45.90
72576;DHT22;60613;48.658;2.328;2022-09-09T11:49:04;26.20;45.70
72576;DHT22;60613;48.658;2.328;2022-09-09T11:51:32;26.30;45.40
72576;DHT22;60613;48.658;2.328;2022-09-09T11:54:30;26.40;45.50
72576;DHT22;60613;48.658;2.328;2022-09-09T11:56:57;26.30;45.40
72576;DHT22;60613;48.658;2.328;2022-09-09T11:59:26;26.30;45.40
72576;DHT22;60613;48.658;2.328;2022-09-09T12:01:58;26.30;45.20
72576;DHT22;60613;48.658;2.328;2022-09-09T12:09:31;26.30;45.00
72576;DHT22;60613;48.658;2.328;2022-09-09T12:14:42;26.30;45.10
72576;DHT22;60613;48.658;2.328;2022-09-09T12:19:38;26.40;44.90
72576;DHT22;60613;48.658;2.328;2022-09-09T12:28:22;26.40;44.70
72576;DHT22;60613;48.658;2.328;2022-09-09T12:33:20;26.30;44.70
72576;DHT22;60613;48.658;2.328;2022-09-09T12:35:55;26.40;44.80
72576;DHT22;60613;48.658;2.328;2022-09-09T12:38:34;26.30;44.80
72576;DHT22;60613;48.658;2.328;2022-09-09T12:41:01;26.30;45.00
72576;DHT22;60613;48.658;2.328;2022-09-09T12:43:28;26.30;45.00
72576;DHT22;60613;48.658;2.328;2022-09-09T12:45:57;26.30;45.10
72576;DHT22;60613;48.658;2.328;2022-09-09T12:48:35;26.30;44.80
72576;DHT22;60613;48.658;2.328;2022-09-09T12:51:02;26.30;44.80
72576;DHT22;60613;48.658;2.328;2022-09-09T12:53:36;26.30;44.80
72576;DHT22;60613;48.658;2.328;2022-09-09T12:56:04;26.30;44.70
72576;DHT22;60613;48.658;2.328;2022-09-09T12:58:33;26.30;44.90
72576;DHT22;60613;48.658;2.328;2022-09-09T13:01:00;26.30;44.70
72576;DHT22;60613;48.658;2.328;2022-09-09T13:03:31;26.40;44.80
72576;DHT22;60613;48.658;2.328;2022-09-09T13:06:18;26.40;44.80
72576;DHT22;60613;48.658;2.328;2022-09-09T13:08:45;26.40;44.80
72576;DHT22;60613;48.658;2.328;2022-09-09T13:11:15;26.40;44.60
72576;DHT22;60613;48.658;2.328;2022-09-09T13:13:42;26.40;44.50
72576;DHT22;60613;48.658;2.328;2022-09-09T13:16:37;26.40;44.50
72576;DHT22;60613;48.658;2.328;2022-09-09T13:19:14;26.50;45.70
72576;DHT22;60613;48.658;2.328;2022-09-09T13:21:41;26.40;45.70
72576;DHT22;60613;48.658;2.328;2022-09-09T13:24:28;26.30;44.50
72576;DHT22;60613;48.658;2.328;2022-09-09T13:27:28;26.30;44.70
72576;DHT22;60613;48.658;2.328;2022-09-09T13:29:55;26.30;45.00
72576;DHT22;60613;48.658;2.328;2022-09-09T13:32:23;26.30;45.60
72576;DHT22;60613;48.658;2.328;2022-09-09T13:34:57;26.30;45.10
72576;DHT22;60613;48.658;2.328;2022-09-09T13:37:36;26.30;45.00
72576;DHT22;60613;48.658;2.328;2022-09-09T13:40:04;26.40;45.10
72576;DHT22;60613;48.658;2.328;2022-09-09T13:42:40;26.30;45.20
72576;DHT22;60613;48.658;2.328;2022-09-09T13:45:17;26.30;45.70
72576;DHT22;60613;48.658;2.328;2022-09-09T13:47:45;26.20;45.30
72576;DHT22;60613;48.658;2.328;2022-09-09T13:52:44;26.20;45.60
72576;DHT22;60613;48.658;2.328;2022-09-09T13:55:10;26.20;45.60
72576;DHT22;60613;48.658;2.328;2022-09-09T13:57:36;26.20;45.60
72576;DHT22;60613;48.658;2.328;2022-09-09T14:00:02;26.20;45.50
72576;DHT22;60613;48.658;2.328;2022-09-09T14:02:28;26.20;45.50
72576;DHT22;60613;48.658;2.328;2022-09-09T14:04:53;26.20;45.40
72576;DHT22;60613;48.658;2.328;2022-09-09T14:07:21;26.20;45.40
72576;DHT22;60613;48.658;2.328;2022-09-09T14:09:46;26.20;45.40
72576;DHT22;60613;48.658;2.328;2022-09-09T14:12:16;26.20;45.40
72576;DHT22;60613;48.658;2.328;2022-09-09T14:14:42;26.20;45.40
72576;DHT22;60613;48.658;2.328;2022-09-09T14:17:08;26.20;45.50
72576;DHT22;60613;48.658;2.328;2022-09-09T14:19:34;26.10;45.30
72576;DHT22;60613;48.658;2.328;2022-09-09T14:22:00;26.20;45.50
72576;DHT22;60613;48.658;2.328;2022-09-09T14:24:26;26.10;46.50
72576;DHT22;60613;48.658;2.328;2022-09-09T14:26:53;26.10;45.40
72576;DHT22;60613;48.658;2.328;2022-09-09T14:29:18;26.10;45.40
72576;DHT22;60613;48.658;2.328;2022-09-09T14:31:44;26.10;45.60
72576;DHT22;60613;48.658;2.328;2022-09-09T14:34:10;26.10;45.50
72576;DHT22;60613;48.658;2.328;2022-09-09T14:36:36;26.20;45.40
72576;DHT22;60613;48.658;2.328;2022-09-09T14:39:03;26.10;45.40
72576;DHT22;60613;48.658;2.328;2022-09-09T14:41:29;26.20;45.40
72576;DHT22;60613;48.658;2.328;2022-09-09T14:43:55;26.20;45.40
72576;DHT22;60613;48.658;2.328;2022-09-09T14:46:21;26.10;45.50
72576;DHT22;60613;48.658;2.328;2022-09-09T14:48:47;26.10;45.50
72576;DHT22;60613;48.658;2.328;2022-09-09T14:51:19;26.10;45.50
72576;DHT22;60613;48.658;2.328;2022-09-09T14:53:48;26.10;45.40
72576;DHT22;60613;48.658;2.328;2022-09-09T14:56:18;26.20;45.50
72576;DHT22;60613;48.658;2.328;2022-09-09T14:58:45;26.20;45.40
72576;DHT22;60613;48.658;2.328;2022-09-09T15:01:17;26.20;45.40
72576;DHT22;60613;48.658;2.328;2022-09-09T15:03:52;26.20;45.50
72576;DHT22;60613;48.658;2.328;2022-09-09T15:06:19;26.20;45.40
72576;DHT22;60613;48.658;2.328;2022-09-09T15:08:45;26.10;45.40
72576;DHT22;60613;48.658;2.328;2022-09-09T15:11:13;26.20;45.40
72576;DHT22;60613;48.658;2.328;2022-09-09T15:13:40;26.10;45.40
72576;DHT22;60613;48.658;2.328;2022-09-09T15:16:08;26.10;45.40
72576;DHT22;60613;48.658;2.328;2022-09-09T15:18:34;26.10;45.40
72576;DHT22;60613;48.658;2.328;2022-09-09T15:21:03;26.20;45.40
72576;DHT22;60613;48.658;2.328;2022-09-09T15:23:34;26.10;45.30
72576;DHT22;60613;48.658;2.328;2022-09-09T15:26:01;26.20;46.50
72576;DHT22;60613;48.658;2.328;2022-09-09T15:28:27;26.20;45.40
72576;DHT22;60613;48.658;2.328;2022-09-09T15:30:53;26.10;45.40
72576;DHT22;60613;48.658;2.328;2022-09-09T15:33:20;26.20;45.40
72576;DHT22;60613;48.658;2.328;2022-09-09T15:35:46;26.10;45.30
72576;DHT22;60613;48.658;2.328;2022-09-09T15:38:12;26.10;45.40
72576;DHT22;60613;48.658;2.328;2022-09-09T15:40:40;26.10;45.40
72576;DHT22;60613;48.658;2.328;2022-09-09T15:43:06;26.10;45.40
72576;DHT22;60613;48.658;2.328;2022-09-09T15:45:33;26.10;45.30
72576;DHT22;60613;48.658;2.328;2022-09-09T15:48:00;26.10;45.30
72576;DHT22;60613;48.658;2.328;2022-09-09T15:50:26;26.10;45.20
72576;DHT22;60613;48.658;2.328;2022-09-09T15:52:52;26.20;45.30
72576;DHT22;60613;48.658;2.328;2022-09-09T15:55:21;26.20;45.30
72576;DHT22;60613;48.658;2.328;2022-09-09T15:57:46;26.10;45.20
72576;DHT22;60613;48.658;2.328;2022-09-09T16:00:13;26.10;45.30
72576;DHT22;60613;48.658;2.328;2022-09-09T16:02:39;26.10;45.30
72576;DHT22;60613;48.658;2.328;2022-09-09T16:05:05;26.10;45.30
72576;DHT22;60613;48.658;2.328;2022-09-09T16:07:31;26.10;45.20
72576;DHT22;60613;48.658;2.328;2022-09-09T16:09:56;26.10;45.30
72576;DHT22;60613;48.658;2.328;2022-09-09T16:12:22;26.10;45.20
72576;DHT22;60613;48.658;2.328;2022-09-09T16:14:48;26.10;45.20
72576;DHT22;60613;48.658;2.328;2022-09-09T16:17:13;26.10;45.20
72576;DHT22;60613;48.658;2.328;2022-09-09T16:19:40;26.10;45.20
72576;DHT22;60613;48.658;2.328;2022-09-09T16:22:06;26.10;45.30
72576;DHT22;60613;48.658;2.328;2022-09-09T16:24:32;26.10;45.20
72576;DHT22;60613;48.658;2.328;2022-09-09T16:26:57;26.10;45.20
72576;DHT22;60613;48.658;2.328;2022-09-09T16:29:23;26.00;45.10
72576;DHT22;60613;48.658;2.328;2022-09-09T16:31:53;26.00;45.40
72576;DHT22;60613;48.658;2.328;2022-09-09T16:34:20;26.10;45.50
72576;DHT22;60613;48.658;2.328;2022-09-09T16:36:47;26.10;45.30
72576;DHT22;60613;48.658;2.328;2022-09-09T16:39:18;26.10;45.30
72576;DHT22;60613;48.658;2.328;2022-09-09T16:41:45;26.10;45.10
72576;DHT22;60613;48.658;2.328;2022-09-09T16:44:12;26.20;45.20
72576;DHT22;60613;48.658;2.328;2022-09-09T16:46:40;26.10;45.30
72576;DHT22;60613;48.658;2.328;2022-09-09T16:49:10;26.00;45.30
72576;DHT22;60613;48.658;2.328;2022-09-09T16:51:40;26.00;45.50
72576;DHT22;60613;48.658;2.328;2022-09-09T16:54:07;26.00;45.40
72576;DHT22;60613;48.658;2.328;2022-09-09T16:56:36;26.00;45.40
72576;DHT22;60613;48.658;2.328;2022-09-09T16:59:05;26.00;45.30
72576;DHT22;60613;48.658;2.328;2022-09-09T17:01:33;26.00;45.30
72576;DHT22;60613;48.658;2.328;2022-09-09T17:04:01;26.00;45.30
72576;DHT22;60613;48.658;2.328;2022-09-09T17:06:31;26.00;45.10
72576;DHT22;60613;48.658;2.328;2022-09-09T17:09:02;26.00;45.30
72576;DHT22;60613;48.658;2.328;2022-09-09T17:11:28;26.00;45.30
72576;DHT22;60613;48.658;2.328;2022-09-09T17:13:55;26.00;45.30
72576;DHT22;60613;48.658;2.328;2022-09-09T17:16:22;25.90;45.50
72576;DHT22;60613;48.658;2.328;2022-09-09T17:18:49;25.90;45.50
72576;DHT22;60613;48.658;2.328;2022-09-09T17:21:18;25.80;45.70
72576;DHT22;60613;48.658;2.328;2022-09-09T17:23:44;25.80;45.60
72576;DHT22;60613;48.658;2.328;2022-09-09T17:26:12;25.80;45.60
72576;DHT22;60613;48.658;2.328;2022-09-09T17:28:39;25.80;45.60
72576;DHT22;60613;48.658;2.328;2022-09-09T17:31:07;25.80;45.50
72576;DHT22;60613;48.658;2.328;2022-09-09T17:33:34;25.70;45.60
72576;DHT22;60613;48.658;2.328;2022-09-09T17:36:16;25.80;45.60
72576;DHT22;60613;48.658;2.328;2022-09-09T17:38:42;25.70;46.00
72576;DHT22;60613;48.658;2.328;2022-09-09T17:41:17;25.70;46.10
72576;DHT22;60613;48.658;2.328;2022-09-09T17:43:44;25.70;46.70
72576;DHT22;60613;48.658;2.328;2022-09-09T17:46:10;25.70;46.20
72576;DHT22;60613;48.658;2.328;2022-09-09T17:48:37;25.60;46.10